createdAt,value
2022-11-03T00:01:36.216Z,4.28
2022-11-03T00:04:04.111Z,4.68
2022-11-03T00:06:32.265Z,6.65
2022-11-03T00:09:01.253Z,5.57
2022-11-03T00:11:29.135Z,5.32
2022-11-03T00:13:58.829Z,5.10
2022-11-03T00:16:26.712Z,5.05
2022-11-03T00:18:55.377Z,5.18
2022-11-03T00:21:23.727Z,5.00
2022-11-03T00:23:51.950Z,4.93
2022-11-03T00:26:21.920Z,4.95
2022-11-03T00:28:51.165Z,4.90
2022-11-03T00:31:22.682Z,5.15
2022-11-03T00:33:51.189Z,6.53
2022-11-03T00:36:20.773Z,6.32
2022-11-03T00:38:48.903Z,6.40
2022-11-03T00:41:21.378Z,5.70
2022-11-03T00:43:50.121Z,5.10
2022-11-03T00:46:18.661Z,5.40
2022-11-03T00:48:48.217Z,5.43
2022-11-03T00:51:17.654Z,4.83
2022-11-03T00:53:47.582Z,5.82
2022-11-03T00:56:17.161Z,6.15
2022-11-03T00:58:45.665Z,5.50
2022-11-03T01:01:15.593Z,6.18
2022-11-03T01:04:05.919Z,6.40
2022-11-03T01:06:50.591Z,5.35
2022-11-03T01:09:19.524Z,5.40
2022-11-03T01:12:01.932Z,5.28
2022-11-03T01:14:32.208Z,7.45
2022-11-03T01:17:00.386Z,6.90
2022-11-03T01:19:28.205Z,7.00
2022-11-03T01:21:57.683Z,6.38
2022-11-03T01:24:25.498Z,7.05
2022-11-03T01:26:53.369Z,6.20
2022-11-03T01:29:21.517Z,5.20
2022-11-03T01:31:49.424Z,6.22
2022-11-03T01:34:18.894Z,6.15
2022-11-03T01:36:47.849Z,4.47
2022-11-03T01:39:18.791Z,5.65
2022-11-03T01:41:49.356Z,5.32
2022-11-03T01:44:46.283Z,4.68
2022-11-03T01:47:20.848Z,5.15
2022-11-03T01:49:52.130Z,4.45
2022-11-03T01:52:25.890Z,4.82
2022-11-03T01:55:01.236Z,5.07
2022-11-03T01:57:37.488Z,5.35
2022-11-03T02:00:07.300Z,4.40
2022-11-03T02:02:41.827Z,5.22
2022-11-03T02:05:13.904Z,5.05
2022-11-03T02:07:48.214Z,4.35
2022-11-03T02:10:18.035Z,4.90
2022-11-03T02:12:46.867Z,4.45
2022-11-03T02:15:17.210Z,4.75
2022-11-03T02:17:47.799Z,4.25
2022-11-03T02:20:18.561Z,4.93
2022-11-03T02:23:02.038Z,4.13
2022-11-03T02:25:41.444Z,5.43
2022-11-03T02:28:09.688Z,4.47
2022-11-03T02:30:44.916Z,4.28
2022-11-03T02:33:25.693Z,4.50
2022-11-03T02:35:58.788Z,4.30
2022-11-03T02:38:30.054Z,4.70
2022-11-03T02:41:02.091Z,4.10
2022-11-03T02:43:30.699Z,4.05
2022-11-03T02:45:58.952Z,4.25
2022-11-03T02:48:26.856Z,4.03
2022-11-03T02:50:55.771Z,3.47
2022-11-03T02:53:23.559Z,4.20
2022-11-03T02:55:59.256Z,3.80
2022-11-03T02:58:34.176Z,3.92
2022-11-03T03:01:11.976Z,4.57
2022-11-03T03:03:43.527Z,3.58
2022-11-03T03:06:18.103Z,4.53
2022-11-03T03:08:49.327Z,4.30
2022-11-03T03:11:17.399Z,4.85
2022-11-03T03:13:46.879Z,5.25
2022-11-03T03:16:21.417Z,4.90
2022-11-03T03:18:57.764Z,4.38
2022-11-03T03:21:32.605Z,4.22
2022-11-03T03:24:04.330Z,3.92
2022-11-03T03:26:36.540Z,4.85
2022-11-03T03:29:10.744Z,4.18
2022-11-03T03:31:41.945Z,4.97
2022-11-03T03:34:31.487Z,5.13
2022-11-03T03:37:01.293Z,5.20
2022-11-03T03:39:33.390Z,5.60
2022-11-03T03:42:03.949Z,7.30
2022-11-03T03:44:35.266Z,8.57
2022-11-03T03:47:09.127Z,5.40
2022-11-03T03:49:36.991Z,5.43
2022-11-03T03:52:05.387Z,5.57
2022-11-03T03:54:33.169Z,5.13
2022-11-03T03:57:03.939Z,6.38
2022-11-03T03:59:33.221Z,5.28
2022-11-03T04:02:01.738Z,4.75
2022-11-03T04:04:30.028Z,5.07
2022-11-03T04:07:11.763Z,5.30
2022-11-03T04:09:39.546Z,5.22
2022-11-03T04:12:26.751Z,5.50
2022-11-03T04:15:13.518Z,5.43
2022-11-03T04:18:02.300Z,5.90
2022-11-03T04:20:48.262Z,4.32
2022-11-03T04:23:16.244Z,4.20
2022-11-03T04:25:49.095Z,4.78
2022-11-03T04:28:17.146Z,4.82
2022-11-03T04:30:47.451Z,5.15
2022-11-03T04:33:17.227Z,5.68
2022-11-03T04:35:45.461Z,4.60
2022-11-03T04:38:23.209Z,5.53
2022-11-03T04:40:56.894Z,5.43
2022-11-03T04:43:31.074Z,6.05
2022-11-03T04:46:00.395Z,6.35
2022-11-03T04:48:30.028Z,5.28
2022-11-03T04:51:01.460Z,5.43
2022-11-03T04:53:32.957Z,5.78
2022-11-03T04:56:06.994Z,6.38
2022-11-03T04:58:39.773Z,5.97
2022-11-03T05:01:13.605Z,4.53
2022-11-03T05:03:43.274Z,4.70
2022-11-03T05:06:15.362Z,4.28
2022-11-03T05:08:45.271Z,4.88
2022-11-03T05:11:21.341Z,5.25
2022-11-03T05:13:49.773Z,6.15
2022-11-03T05:16:19.479Z,5.07
2022-11-03T05:18:50.669Z,4.65
2022-11-03T05:21:20.093Z,4.22
2022-11-03T05:23:50.783Z,4.88
2022-11-03T05:26:21.525Z,7.45
2022-11-03T05:28:53.550Z,10.85
2022-11-03T05:31:26.771Z,11.73
2022-11-03T05:33:57.893Z,7.53
2022-11-03T05:36:28.346Z,6.25
2022-11-03T05:41:27.293Z,4.72
2022-11-03T05:43:59.999Z,7.10
2022-11-03T05:46:32.396Z,6.88
2022-11-03T05:49:03.403Z,6.25
2022-11-03T05:51:34.829Z,6.65
2022-11-03T05:54:05.507Z,5.78
2022-11-03T05:56:36.001Z,6.60
2022-11-03T06:01:38.166Z,5.35
2022-11-03T06:04:19.481Z,6.18
2022-11-03T06:06:53.838Z,5.70
2022-11-03T06:09:24.408Z,6.85
2022-11-03T06:14:24.364Z,7.45
2022-11-03T06:16:57.754Z,6.55
2022-11-03T06:19:29.816Z,7.70
2022-11-03T06:22:00.152Z,6.90
2022-11-03T06:24:32.045Z,8.07
2022-11-03T06:26:59.960Z,8.60
2022-11-03T06:29:28.031Z,7.32
2022-11-03T06:31:58.187Z,7.15
2022-11-03T06:34:39.143Z,7.53
2022-11-03T06:37:17.264Z,7.32
2022-11-03T06:39:45.158Z,7.60
2022-11-03T06:42:14.965Z,7.85
2022-11-03T06:44:45.057Z,7.13
2022-11-03T06:47:24.244Z,8.25
2022-11-03T06:49:53.872Z,7.28
2022-11-03T06:52:27.495Z,7.82
2022-11-03T06:55:01.692Z,7.95
2022-11-03T06:57:35.387Z,8.38
2022-11-03T07:00:34.669Z,7.00
2022-11-03T07:02:59.395Z,8.10
2022-11-03T07:05:29.320Z,7.35
2022-11-03T07:07:59.955Z,12.45
2022-11-03T07:10:29.466Z,12.75
2022-11-03T07:12:58.567Z,8.87
2022-11-03T07:15:32.110Z,9.73
2022-11-03T07:18:03.547Z,10.05
2022-11-03T07:20:31.585Z,8.65
2022-11-03T07:23:02.838Z,7.68
2022-11-03T07:25:32.738Z,8.30
2022-11-03T07:28:04.595Z,8.57
2022-11-03T07:30:36.085Z,7.32
2022-11-03T07:33:15.275Z,7.68
2022-11-03T07:36:13.941Z,6.95
2022-11-03T07:38:34.773Z,8.23
2022-11-03T07:41:02.633Z,7.88
2022-11-03T07:43:34.850Z,7.75
2022-11-03T07:46:03.614Z,8.35
2022-11-03T07:48:37.543Z,6.88
2022-11-03T07:51:17.133Z,8.30
2022-11-03T07:53:47.479Z,6.67
2022-11-03T07:56:20.827Z,7.63
2022-11-03T07:58:52.209Z,8.95
2022-11-03T08:01:32.253Z,8.38
2022-11-03T08:04:04.495Z,7.35
2022-11-03T08:06:32.323Z,6.53
2022-11-03T08:09:00.456Z,6.45
2022-11-03T08:11:29.654Z,5.70
2022-11-03T08:13:58.419Z,5.90
2022-11-03T08:16:26.413Z,6.80
2022-11-03T08:18:54.287Z,5.43
2022-11-03T08:21:23.527Z,9.15
2022-11-03T08:23:52.009Z,6.18
2022-11-03T08:26:19.832Z,10.05
2022-11-03T08:28:47.896Z,9.98
2022-11-03T08:31:16.024Z,4.00
2022-11-03T08:33:43.830Z,4.78
2022-11-03T08:36:11.953Z,4.45
2022-11-03T08:38:41.258Z,4.72
2022-11-03T08:41:10.201Z,4.80
2022-11-03T08:43:38.168Z,4.47
2022-11-03T08:46:15.910Z,5.20
2022-11-03T08:48:45.618Z,5.45
2022-11-03T08:51:14.570Z,4.82
2022-11-03T08:53:44.320Z,4.22
2022-11-03T08:56:14.342Z,4.20
2022-11-03T08:58:43.035Z,4.55
2022-11-03T09:01:11.179Z,4.55
2022-11-03T09:03:39.288Z,4.50
2022-11-03T09:06:08.020Z,4.50
2022-11-03T09:11:24.961Z,4.15
2022-11-03T09:13:52.998Z,5.43
2022-11-03T09:16:20.775Z,4.93
2022-11-03T09:18:48.582Z,4.40
2022-11-03T09:21:16.394Z,4.55
2022-11-03T09:23:44.190Z,4.45
2022-11-03T09:26:11.979Z,4.65
2022-11-03T09:28:41.268Z,4.30
2022-11-03T09:31:09.097Z,5.05
2022-11-03T09:33:36.997Z,5.00
2022-11-03T09:36:04.917Z,4.18
2022-11-03T09:38:32.767Z,4.80
2022-11-03T09:41:00.985Z,4.80
2022-11-03T09:43:28.781Z,5.20
2022-11-03T09:45:58.305Z,4.72
2022-11-03T09:48:27.036Z,4.82
2022-11-03T09:50:55.789Z,4.82
2022-11-03T09:53:23.632Z,4.45
2022-11-03T09:55:51.502Z,4.57
2022-11-03T09:58:19.818Z,4.85
2022-11-03T10:00:47.955Z,4.53
2022-11-03T10:03:20.369Z,5.00
2022-11-03T10:05:49.062Z,5.13
2022-11-03T10:08:24.071Z,5.53
2022-11-03T10:10:52.301Z,5.38
2022-11-03T10:13:26.449Z,6.03
2022-11-03T10:15:54.456Z,5.53
2022-11-03T10:18:23.854Z,4.78
2022-11-03T10:20:51.651Z,5.65
2022-11-03T10:23:19.468Z,5.60
2022-11-03T10:25:47.951Z,5.60
2022-11-03T10:28:21.374Z,5.70
2022-11-03T10:31:10.525Z,5.88
2022-11-03T10:33:41.861Z,5.25
2022-11-03T10:36:25.153Z,6.13
2022-11-03T10:38:53.571Z,5.15
2022-11-03T10:41:22.968Z,5.47
2022-11-03T10:44:02.299Z,6.10
2022-11-03T10:46:51.306Z,5.70
2022-11-03T10:49:21.501Z,5.80
2022-11-03T10:51:51.471Z,6.28
2022-11-03T10:54:21.966Z,6.27
2022-11-03T10:59:21.661Z,6.30
2022-11-03T11:04:20.980Z,6.13
2022-11-03T11:06:49.510Z,6.85
2022-11-03T11:09:22.696Z,6.50
2022-11-03T11:12:36.915Z,6.95
2022-11-03T11:15:23.106Z,7.55
2022-11-03T11:17:51.086Z,6.60
2022-11-03T11:20:35.096Z,7.10
2022-11-03T11:23:49.200Z,9.05
2022-11-03T11:26:31.110Z,8.02
2022-11-03T11:29:43.993Z,8.70
2022-11-03T11:32:47.675Z,7.85
2022-11-03T11:35:19.888Z,8.27
2022-11-03T11:37:49.315Z,8.60
2022-11-03T11:40:53.357Z,9.30
2022-11-03T11:43:28.224Z,7.55
2022-11-03T11:46:33.222Z,9.10
2022-11-03T11:49:18.359Z,7.45
2022-11-03T11:51:46.745Z,8.45
2022-11-03T11:54:19.058Z,8.20
2022-11-03T11:56:49.779Z,8.75
2022-11-03T11:59:25.077Z,10.43
2022-11-03T12:01:55.936Z,7.80
2022-11-03T12:04:26.230Z,8.73
2022-11-03T12:06:55.466Z,9.70
2022-11-03T12:09:28.020Z,8.75
2022-11-03T12:12:00.543Z,7.88
2022-11-03T12:14:35.151Z,9.05
2022-11-03T12:17:34.152Z,9.73
2022-11-03T12:20:01.952Z,8.52
2022-11-03T12:22:43.538Z,9.07
2022-11-03T12:25:40.099Z,9.73
2022-11-03T12:28:08.104Z,9.02
2022-11-03T12:30:40.010Z,8.23
2022-11-03T12:33:08.850Z,8.38
2022-11-03T12:35:37.107Z,8.35
2022-11-03T12:38:04.908Z,8.82
2022-11-03T12:40:32.689Z,8.43
2022-11-03T12:43:01.830Z,7.82
2022-11-03T12:45:29.621Z,9.18
2022-11-03T12:47:57.460Z,8.50
2022-11-03T12:50:25.239Z,7.57
2022-11-03T12:52:52.999Z,8.38
2022-11-03T12:55:20.901Z,8.20
2022-11-03T12:57:48.783Z,8.57
2022-11-03T13:00:18.644Z,7.55
2022-11-03T13:02:46.582Z,8.75
2022-11-03T13:05:15.469Z,12.13
2022-11-03T13:07:43.470Z,9.48
2022-11-03T13:10:11.710Z,7.68
2022-11-03T13:12:41.486Z,8.13
2022-11-03T13:15:13.433Z,8.35
2022-11-03T13:18:07.587Z,7.93
2022-11-03T13:20:31.442Z,7.90
2022-11-03T13:22:59.359Z,7.88
2022-11-03T13:25:28.818Z,7.85
2022-11-03T13:27:57.085Z,6.18
2022-11-03T13:30:26.810Z,7.07
2022-11-03T13:32:55.978Z,6.32
2022-11-03T13:35:24.077Z,6.93
2022-11-03T13:37:52.102Z,6.28
2022-11-03T13:40:55.466Z,6.40
2022-11-03T13:43:08.933Z,7.03
2022-11-03T13:45:36.961Z,7.35
2022-11-03T13:50:54.315Z,7.80
2022-11-03T13:56:12.878Z,8.18
2022-11-03T14:01:33.639Z,7.05
2022-11-03T14:06:50.914Z,7.00
2022-11-03T14:09:19.060Z,7.53
2022-11-03T14:12:04.327Z,7.70
2022-11-03T14:14:32.844Z,7.65
2022-11-03T14:17:00.752Z,8.45
2022-11-03T14:19:37.958Z,7.60
2022-11-03T14:22:09.622Z,8.55
2022-11-03T14:24:37.483Z,8.35
2022-11-03T14:27:05.493Z,8.25
2022-11-03T14:29:33.412Z,8.10
2022-11-03T14:32:01.330Z,7.80
2022-11-03T14:34:30.864Z,7.95
2022-11-03T14:36:58.896Z,8.17
2022-11-03T14:39:26.889Z,8.27
2022-11-03T14:42:05.851Z,7.90
2022-11-03T14:44:34.847Z,8.88
2022-11-03T14:47:03.873Z,8.60
2022-11-03T14:49:34.289Z,10.02
2022-11-03T14:52:03.346Z,8.85
2022-11-03T14:54:32.410Z,8.43
2022-11-03T14:57:00.522Z,8.93
2022-11-03T14:59:28.447Z,8.57
2022-11-03T15:01:56.711Z,8.50
2022-11-03T15:04:25.073Z,8.50
2022-11-03T15:06:54.445Z,8.35
2022-11-03T15:09:22.331Z,8.70
2022-11-03T15:11:50.351Z,8.20
2022-11-03T15:14:18.123Z,8.20
2022-11-03T15:16:46.272Z,9.00
2022-11-03T15:19:14.142Z,9.10
2022-11-03T15:21:42.291Z,8.77
2022-11-03T15:26:59.469Z,8.90
2022-11-03T15:29:27.270Z,10.10
2022-11-03T15:31:55.102Z,8.98
2022-11-03T15:34:22.877Z,8.30
2022-11-03T15:36:50.703Z,8.23
2022-11-03T15:39:19.979Z,8.20
2022-11-03T15:41:47.924Z,7.78
2022-11-03T15:44:15.748Z,7.70
2022-11-03T15:46:43.620Z,6.97
2022-11-03T15:49:11.571Z,7.45
2022-11-03T15:51:39.898Z,7.38
2022-11-03T15:54:08.206Z,7.72
2022-11-03T15:56:37.386Z,7.70
2022-11-03T15:59:05.180Z,8.40
2022-11-03T16:01:33.144Z,7.70
2022-11-03T16:04:01.162Z,7.65
2022-11-03T16:06:53.861Z,7.13
2022-11-03T16:09:17.291Z,6.95
2022-11-03T16:11:46.514Z,6.68
2022-11-03T16:14:15.028Z,7.88
2022-11-03T16:16:42.891Z,7.47
2022-11-03T16:19:11.039Z,7.40
2022-11-03T16:21:38.959Z,7.35
2022-11-03T16:24:07.267Z,7.47
2022-11-03T16:26:35.193Z,7.15
2022-11-03T16:29:04.562Z,8.30
2022-11-03T16:31:32.665Z,7.80
2022-11-03T16:34:00.531Z,7.10
2022-11-03T16:36:28.340Z,6.38
2022-11-03T16:38:56.300Z,7.18
2022-11-03T16:41:24.085Z,6.90
2022-11-03T16:43:51.969Z,6.95
2022-11-03T16:46:21.299Z,6.45
2022-11-03T16:48:49.243Z,6.25
2022-11-03T16:51:17.138Z,5.93
2022-11-03T16:53:45.018Z,5.85
2022-11-03T16:56:12.808Z,5.82
2022-11-03T16:58:40.995Z,6.70
2022-11-03T17:01:09.183Z,7.95
2022-11-03T17:03:38.683Z,6.55
2022-11-03T17:06:06.823Z,7.60
2022-11-03T17:11:36.528Z,6.80
2022-11-03T17:14:05.989Z,7.13
2022-11-03T17:16:33.992Z,6.75
2022-11-03T17:19:03.254Z,6.70
2022-11-03T17:21:31.194Z,6.82
2022-11-03T17:23:59.992Z,6.50
2022-11-03T17:26:38.925Z,6.68
2022-11-03T17:29:15.733Z,6.90
2022-11-03T17:31:43.607Z,6.68
2022-11-03T17:34:14.059Z,5.80
2022-11-03T17:39:13.833Z,7.25
2022-11-03T17:41:41.661Z,7.22
2022-11-03T17:44:11.920Z,6.70
2022-11-03T17:46:39.793Z,6.85
2022-11-03T17:49:07.642Z,7.07
2022-11-03T17:51:41.396Z,6.60
2022-11-03T17:54:10.199Z,6.03
2022-11-03T17:56:38.076Z,6.63
2022-11-03T17:59:06.291Z,7.00
2022-11-03T18:01:34.307Z,5.55
2022-11-03T18:04:02.811Z,5.65
2022-11-03T18:06:30.852Z,5.63
2022-11-03T18:09:00.447Z,6.72
2022-11-03T18:11:48.789Z,7.00
2022-11-03T18:14:17.046Z,6.72
2022-11-03T18:16:45.078Z,6.60
2022-11-03T18:19:15.238Z,8.20
2022-11-03T18:21:43.903Z,7.55
2022-11-03T18:24:15.622Z,6.28
2022-11-03T18:26:43.919Z,6.53
2022-11-03T18:29:11.933Z,6.40
2022-11-03T18:31:42.282Z,7.15
2022-11-03T18:34:15.895Z,6.65
2022-11-03T18:36:44.477Z,6.72
2022-11-03T18:39:18.333Z,5.72
2022-11-03T18:41:46.399Z,6.47
2022-11-03T18:44:18.628Z,7.20
2022-11-03T18:46:46.681Z,6.63
2022-11-03T18:49:14.633Z,6.18
2022-11-03T18:51:46.341Z,6.22
2022-11-03T18:54:20.678Z,6.65
2022-11-03T18:56:49.198Z,6.75
2022-11-03T18:59:22.150Z,7.85
2022-11-03T19:01:50.242Z,5.97
2022-11-03T19:04:18.486Z,6.68
2022-11-03T19:06:48.405Z,6.50
2022-11-03T19:09:20.824Z,6.57
2022-11-03T19:11:50.697Z,6.90
2022-11-03T19:14:24.258Z,7.75
2022-11-03T19:19:41.392Z,6.95
2022-11-03T19:22:13.787Z,7.10
2022-11-03T19:24:43.131Z,6.68
2022-11-03T19:27:15.166Z,6.60
2022-11-03T19:29:43.496Z,6.88
2022-11-03T19:32:18.796Z,6.97
2022-11-03T19:34:47.326Z,7.38
2022-11-03T19:37:15.605Z,7.95
2022-11-03T19:39:44.839Z,7.65
2022-11-03T19:42:28.933Z,8.20
2022-11-03T19:44:58.096Z,7.25
2022-11-03T19:47:31.602Z,7.72
2022-11-03T19:50:02.392Z,7.95
2022-11-03T19:52:31.690Z,7.85
2022-11-03T19:55:03.124Z,7.38
2022-11-03T19:57:30.988Z,7.40
2022-11-03T19:59:59.755Z,8.77
2022-11-03T20:02:29.143Z,11.65
2022-11-03T20:04:58.237Z,12.20
2022-11-03T20:07:31.469Z,7.72
2022-11-03T20:10:03.306Z,8.05
2022-11-03T20:12:32.142Z,7.40
2022-11-03T20:14:59.995Z,7.30
2022-11-03T20:17:27.852Z,8.18
2022-11-03T20:19:55.742Z,7.78
2022-11-03T20:22:29.662Z,8.35
2022-11-03T20:25:02.951Z,8.40
2022-11-03T20:27:33.487Z,7.57
2022-11-03T20:30:02.099Z,7.88
2022-11-03T20:32:29.888Z,8.05
2022-11-03T20:34:57.706Z,7.13
2022-11-03T20:37:25.520Z,7.40
2022-11-03T20:39:54.291Z,7.40
2022-11-03T20:42:24.512Z,7.40
2022-11-03T20:44:53.968Z,6.40
2022-11-03T20:47:22.096Z,7.07
2022-11-03T20:49:49.967Z,7.35
2022-11-03T20:52:17.978Z,8.02
2022-11-03T20:54:45.786Z,7.25
2022-11-03T20:57:14.399Z,7.00
2022-11-03T20:59:42.563Z,7.05
2022-11-03T21:02:13.733Z,7.15
2022-11-03T21:04:43.272Z,6.18
2022-11-03T21:07:13.701Z,7.60
2022-11-03T21:09:41.972Z,8.00
2022-11-03T21:12:13.223Z,7.93
2022-11-03T21:15:04.027Z,8.02
2022-11-03T21:17:50.475Z,7.65
2022-11-03T21:20:18.346Z,8.70
2022-11-03T21:22:54.437Z,8.75
2022-11-03T21:25:24.648Z,7.72
2022-11-03T21:30:25.000Z,8.93
2022-11-03T21:32:54.289Z,8.75
2022-11-03T21:35:23.598Z,8.93
2022-11-03T21:37:51.458Z,8.65
2022-11-03T21:40:19.308Z,10.13
2022-11-03T21:43:04.788Z,9.20
2022-11-03T21:45:33.204Z,9.00
2022-11-03T21:48:20.961Z,8.20
2022-11-03T21:50:49.237Z,9.90
2022-11-03T21:53:17.127Z,8.32
2022-11-03T21:55:47.504Z,9.05
2022-11-03T21:58:15.664Z,9.07
2022-11-03T22:00:43.550Z,8.13
2022-11-03T22:03:12.824Z,9.23
2022-11-03T22:05:42.390Z,9.30
2022-11-03T22:08:10.413Z,7.97
2022-11-03T22:10:39.873Z,8.07
2022-11-03T22:13:07.995Z,8.25
2022-11-03T22:15:53.335Z,7.60
2022-11-03T22:18:22.547Z,7.75
2022-11-03T22:21:07.913Z,7.93
2022-11-03T22:24:07.661Z,7.55
2022-11-03T22:26:53.489Z,7.97
2022-11-03T22:29:38.862Z,7.70
2022-11-03T22:32:14.147Z,7.93
2022-11-03T22:35:00.747Z,7.40
2022-11-03T22:40:14.046Z,7.40
2022-11-03T22:42:59.289Z,7.80
2022-11-03T22:45:44.645Z,8.30
2022-11-03T22:48:12.772Z,8.50
2022-11-03T22:50:42.032Z,8.02
2022-11-03T22:53:27.402Z,8.05
2022-11-03T22:55:57.814Z,7.10
2022-11-03T22:58:30.254Z,8.25
2022-11-03T23:00:58.820Z,7.28
2022-11-03T23:03:33.302Z,8.77
2022-11-03T23:06:10.397Z,7.40
2022-11-03T23:08:39.973Z,7.45
2022-11-03T23:11:15.945Z,7.30
2022-11-03T23:13:45.907Z,7.57
2022-11-03T23:16:15.528Z,7.05
2022-11-03T23:19:01.386Z,7.23
2022-11-03T23:21:33.185Z,6.75
2022-11-03T23:24:18.662Z,6.47
2022-11-03T23:26:49.479Z,6.97
2022-11-03T23:29:17.923Z,6.85
2022-11-03T23:31:52.176Z,7.47
2022-11-03T23:34:20.113Z,6.25
2022-11-03T23:36:49.394Z,6.22
2022-11-03T23:39:19.156Z,5.93
2022-11-03T23:41:47.754Z,4.80
2022-11-03T23:44:17.135Z,4.22
2022-11-03T23:47:03.041Z,3.90
2022-11-03T23:49:31.037Z,3.78
2022-11-03T23:52:00.316Z,4.13
2022-11-03T23:54:28.406Z,3.08
2022-11-03T23:57:10.111Z,3.78
2022-11-03T23:59:37.922Z,4.40
